Time;durP1;ratioP1;P1;durP2;ratioP2;P2;SDS_P1;SDS_P2;PMS_P1;PMS_P2;Temp;Humidity;BMP_temperature;BMP_pressure;BME280_temperature;BME280_humidity;BME280_pressure;Samples;Min_cycle;Max_cycle;Signal;HPM_P1;HPM_P2
2022/07/02 00:02:08;;;;;;;0.30;0.30;;;16.90;99.90;18.10;102060.00;;;;5034686;28;20184;-68
2022/07/02 00:04:46;;;;;;;0.30;0.30;;;16.90;99.90;18.30;102070.00;;;;5034749;28;20241;-68
2022/07/02 00:07:30;;;;;;;0.30;0.30;;;17.20;99.90;18.30;102070.00;;;;5034044;28;20185;-68
2022/07/02 00:10:18;;;;;;;0.30;0.30;;;17.20;99.90;18.40;102068.00;;;;5034523;28;20188;-68
2022/07/02 00:13:12;;;;;;;0.23;0.23;;;17.20;99.90;18.10;102059.00;;;;5034364;28;20314;-68
2022/07/02 00:15:45;;;;;;;0.30;0.30;;;17.20;99.90;17.70;102065.00;;;;5034551;28;20210;-68
2022/07/02 00:18:30;;;;;;;0.30;0.30;;;17.10;99.90;17.80;102047.00;;;;5034321;28;20170;-68
2022/07/02 00:21:19;;;;;;;0.30;0.30;;;16.90;99.90;17.60;102053.00;;;;5034253;28;20193;-68
2022/07/02 00:24:08;;;;;;;0.30;0.30;;;17.00;99.90;17.30;102031.00;;;;5019676;28;20254;-68
2022/07/02 00:27:13;;;;;;;0.30;0.30;;;16.70;99.90;18.20;102050.00;;;;5035314;28;20188;-68
2022/07/02 00:33:26;;;;;;;0.30;0.30;;;16.80;99.90;16.60;102016.00;;;;5034692;28;20221;-68
2022/07/02 00:36:23;;;;;;;0.63;0.40;;;16.40;99.90;16.80;102020.00;;;;5033769;28;20203;-68
2022/07/02 00:39:26;;;;;;;0.20;0.20;;;16.30;99.90;17.00;102026.00;;;;5050547;28;20214;-68
2022/07/02 00:42:10;;;;;;;0.20;0.20;;;16.30;99.90;17.40;102021.00;;;;5033824;28;20180;-68
2022/07/02 00:45:00;;;;;;;0.20;0.20;;;16.50;99.90;17.70;102046.00;;;;5035351;28;20205;-68
2022/07/02 00:48:02;;;;;;;0.30;0.30;;;16.70;99.90;17.90;102049.00;;;;5033708;28;20190;-68
2022/07/02 00:50:37;;;;;;;0.30;0.30;;;16.80;99.90;17.90;102056.00;;;;5033734;28;20246;-68
2022/07/02 00:53:23;;;;;;;0.30;0.30;;;16.90;99.90;18.20;102041.00;;;;5035094;28;20230;-68
2022/07/02 00:56:36;;;;;;;0.30;0.30;;;17.00;99.90;17.60;102045.00;;;;5032739;28;20189;-68
2022/07/02 00:59:24;;;;;;;0.30;0.30;;;17.10;99.90;17.00;102019.00;;;;5060685;28;20245;-68
2022/07/02 01:02:29;;;;;;;0.30;0.30;;;16.50;99.90;17.20;102013.00;;;;5033536;28;20169;-68
2022/07/02 01:05:18;;;;;;;0.30;0.30;;;16.50;99.90;17.20;102021.00;;;;5033361;28;20189;-68
2022/07/02 01:11:04;;;;;;;0.30;0.30;;;16.70;99.90;17.80;102036.00;;;;5034561;28;20247;-68
2022/07/02 01:13:57;;;;;;;0.30;0.30;;;16.70;99.90;17.50;102028.00;;;;5033397;28;20192;-68
2022/07/02 01:16:58;;;;;;;0.30;0.30;;;16.80;99.90;18.40;102023.00;;;;5033591;28;20209;-68
2022/07/02 01:19:41;;;;;;;0.30;0.30;;;17.00;99.90;18.10;102041.00;;;;5034150;28;20271;-68
2022/07/02 01:22:37;;;;;;;0.20;0.20;;;17.10;99.90;17.60;102020.00;;;;5033388;28;20205;-68
2022/07/02 01:25:26;;;;;;;0.20;0.20;;;16.80;99.90;17.10;102017.00;;;;5049424;28;20228;-68
2022/07/02 01:28:23;;;;;;;0.30;0.30;;;16.70;99.90;17.50;102014.00;;;;5032798;28;20183;-68
2022/07/02 01:31:09;;;;;;;0.30;0.30;;;16.60;99.90;17.50;102006.00;;;;5032900;28;20183;-68
2022/07/02 01:33:55;;;;;;;0.40;0.40;;;16.60;99.90;17.90;102028.00;;;;5032963;28;20564;-68
2022/07/02 01:36:55;;;;;;;0.20;0.20;;;16.90;99.90;17.10;102017.00;;;;5032733;28;20211;-68
2022/07/02 01:39:46;;;;;;;0.30;0.30;;;16.60;99.90;17.20;102004.00;;;;5032994;28;20636;-68
2022/07/02 01:42:32;;;;;;;0.20;0.20;;;16.40;99.90;17.20;102013.00;;;;5033208;28;20229;-68
2022/07/02 01:45:18;;;;;;;0.30;0.30;;;16.40;99.90;17.00;101987.00;;;;5032658;28;20188;-68
2022/07/02 01:48:05;;;;;;;0.30;0.30;;;16.30;99.90;17.10;102020.00;;;;5016448;28;20245;-68
2022/07/02 01:50:56;;;;;;;0.30;0.30;;;16.30;99.90;17.00;102012.00;;;;5051235;28;20189;-68
2022/07/02 01:53:49;;;;;;;0.30;0.30;;;16.30;99.90;17.10;101985.00;;;;5032367;28;20187;-68
2022/07/02 01:56:57;;;;;;;0.30;0.30;;;16.30;99.90;16.70;101993.00;;;;5032660;28;20180;-68
2022/07/02 01:59:59;;;;;;;0.30;0.30;;;16.20;99.90;17.10;102016.00;;;;5050518;28;20185;-68
2022/07/02 02:02:46;;;;;;;0.30;0.30;;;16.20;99.90;17.00;102018.00;;;;5033789;28;20270;-68
2022/07/02 02:05:19;;;;;;;0.30;0.30;;;16.30;99.90;16.80;102011.00;;;;5032325;28;20180;-68
2022/07/02 02:08:03;;;;;;;0.30;0.30;;;16.20;99.90;17.00;101982.00;;;;5033396;28;20188;-68
2022/07/02 02:10:49;;;;;;;0.27;0.27;;;16.20;99.90;16.70;102005.00;;;;5032614;28;20177;-68
2022/07/02 02:13:50;;;;;;;0.30;0.30;;;16.20;99.90;16.60;101967.00;;;;5032272;28;20193;-68
2022/07/02 02:16:36;;;;;;;0.30;0.30;;;16.10;99.90;16.90;102003.00;;;;5032420;28;20264;-68
2022/07/02 02:19:23;;;;;;;0.30;0.30;;;16.20;99.90;16.80;101990.00;;;;5031717;28;20189;-68
2022/07/02 02:22:16;;;;;;;0.30;0.30;;;16.20;99.90;16.50;101988.00;;;;5015874;28;20181;-68
2022/07/02 02:24:50;;;;;;;0.30;0.30;;;16.10;99.90;17.00;101998.00;;;;5032363;28;20185;-68
2022/07/02 02:27:33;;;;;;;0.30;0.30;;;16.20;99.90;17.40;101999.00;;;;5048724;28;20185;-68
2022/07/02 02:30:19;;;;;;;0.30;0.30;;;16.40;99.90;17.10;101998.00;;;;5032320;28;20189;-68
2022/07/02 02:33:05;;;;;;;0.30;0.30;;;16.40;99.90;17.10;101962.00;;;;5031913;28;20670;-68
2022/07/02 02:35:51;;;;;;;0.20;0.20;;;16.30;99.90;16.60;101982.00;;;;5032106;28;20184;-68
2022/07/02 02:38:37;;;;;;;0.20;0.20;;;16.20;99.90;16.70;101973.00;;;;5032577;28;20213;-68
2022/07/02 02:41:29;;;;;;;0.30;0.30;;;16.20;99.90;16.40;101965.00;;;;5065125;28;20190;-68
2022/07/02 02:44:30;;;;;;;0.37;0.37;;;16.10;99.90;16.50;101974.00;;;;5031996;28;20195;-68
2022/07/02 02:47:13;;;;;;;0.30;0.30;;;16.10;99.90;16.70;101969.00;;;;5031738;28;20198;-68
2022/07/02 02:49:57;;;;;;;0.30;0.30;;;16.10;99.90;16.70;101947.00;;;;5032173;28;20187;-68
2022/07/02 02:52:42;;;;;;;0.20;0.20;;;16.20;99.90;16.70;101964.00;;;;5032047;28;20212;-68
2022/07/02 02:55:52;;;;;;;0.30;0.30;;;16.20;99.90;16.80;101982.00;;;;5031835;28;20184;-68
2022/07/02 02:58:38;;;;;;;0.30;0.30;;;16.20;99.90;16.90;101963.00;;;;5065389;28;20181;-68
2022/07/02 03:01:21;;;;;;;0.30;0.30;;;16.20;99.90;17.30;101979.00;;;;5032193;28;20170;-68
2022/07/02 03:04:10;;;;;;;0.30;0.30;;;16.30;99.90;17.10;101991.00;;;;5031835;28;20187;-68
2022/07/02 03:07:01;;;;;;;0.30;0.30;;;16.30;99.90;17.00;101987.00;;;;5031873;28;20184;-68
2022/07/02 03:09:45;;;;;;;0.20;0.20;;;16.30;99.90;17.00;101982.00;;;;5032050;28;20173;-68
2022/07/02 03:12:31;;;;;;;0.30;0.30;;;16.30;99.90;16.90;101989.00;;;;5031408;28;20633;-68
2022/07/02 03:15:18;;;;;;;0.30;0.30;;;16.30;99.90;17.00;101996.00;;;;5031665;28;20182;-68
2022/07/02 03:18:03;;;;;;;0.30;0.30;;;16.30;99.90;16.60;101986.00;;;;5015570;28;20636;-68
2022/07/02 03:21:04;;;;;;;0.30;0.30;;;16.20;99.90;16.80;101991.00;;;;5035265;28;20185;-68
2022/07/02 03:23:51;;;;;;;0.30;0.30;;;16.20;99.90;16.80;102001.00;;;;5019077;28;20268;-68
2022/07/02 03:26:37;;;;;;;0.30;0.30;;;16.20;99.90;16.60;101990.00;;;;5035332;28;20190;-68
2022/07/02 03:29:23;;;;;;;0.30;0.30;;;16.20;99.90;16.50;101981.00;;;;5035178;28;20179;-67
2022/07/02 03:32:09;;;;;;;0.20;0.20;;;16.10;99.90;16.70;101974.00;;;;5034838;28;20217;-68
2022/07/02 03:34:53;;;;;;;0.40;0.40;;;16.00;99.90;16.20;101975.00;;;;5018829;28;20184;-68
2022/07/02 03:37:37;;;;;;;0.30;0.30;;;16.00;99.90;16.50;101983.00;;;;5020842;28;20679;-68
2022/07/02 03:40:41;;;;;;;0.30;0.30;;;16.00;99.90;16.60;101980.00;;;;5031927;28;20205;-68
2022/07/02 03:43:24;;;;;;;0.23;0.23;;;15.90;99.90;16.50;101984.00;;;;5027920;28;20189;-68
2022/07/02 03:46:10;;;;;;;0.33;0.33;;;16.00;99.90;16.40;101982.00;;;;5016323;28;20181;-68
2022/07/02 03:49:02;;;;;;;0.30;0.30;;;15.90;99.90;16.60;101984.00;;;;5016541;28;20572;-68
2022/07/02 03:51:56;;;;;;;0.20;0.20;;;16.00;99.90;17.00;102001.00;;;;5014813;28;20291;-68
2022/07/02 03:54:40;;;;;;;0.30;0.30;;;16.20;99.90;17.20;102004.00;;;;5029014;28;20533;-68
2022/07/02 04:12:55;;;;;;;0.20;0.20;;;16.50;99.90;17.20;102005.00;;;;5017632;28;20257;-68
2022/07/02 04:15:39;;;;;;;0.30;0.30;;;16.50;99.90;17.40;102017.00;;;;5030953;28;20232;-68
2022/07/02 04:18:29;;;;;;;0.30;0.30;;;16.50;99.90;17.40;102014.00;;;;5014584;28;20580;-68
2022/07/02 04:21:02;;;;;;;0.30;0.30;;;16.50;99.90;17.60;102023.00;;;;5016754;28;20165;-68
2022/07/02 04:23:48;;;;;;;0.30;0.30;;;16.70;99.90;16.70;101995.00;;;;5030811;28;20185;-68
2022/07/02 04:26:40;;;;;;;0.30;0.30;;;16.30;99.90;17.10;102012.00;;;;5031313;28;20187;-68
2022/07/02 04:29:26;;;;;;;0.30;0.30;;;16.20;99.90;16.70;102003.00;;;;5030633;28;20217;-68
2022/07/02 04:32:12;;;;;;;0.30;0.30;;;16.20;99.90;17.50;102014.00;;;;5014177;28;20290;-68
2022/07/02 04:34:58;;;;;;;0.30;0.30;;;16.30;99.90;17.80;102020.00;;;;5031262;28;20249;-68
2022/07/02 04:37:42;;;;;;;0.30;0.30;;;16.70;99.90;17.50;102018.00;;;;5015337;28;20189;-68
2022/07/02 04:40:28;;;;;;;0.30;0.30;;;16.70;99.90;18.10;102017.00;;;;5030952;28;20210;-68
2022/07/02 04:43:12;;;;;;;0.30;0.30;;;17.00;99.90;18.10;101982.00;;;;5030852;28;20235;-68
2022/07/02 04:45:55;;;;;;;0.30;0.30;;;17.10;99.90;18.00;102011.00;;;;5030544;28;20215;-68
2022/07/02 04:48:41;;;;;;;0.30;0.30;;;17.20;99.90;18.10;102002.00;;;;5030510;28;20184;-68
2022/07/02 04:51:28;;;;;;;0.20;0.20;;;17.10;99.90;18.80;101993.00;;;;5030423;28;20215;-68
2022/07/02 04:54:19;;;;;;;0.20;0.20;;;17.60;99.90;20.10;102031.00;;;;5030645;28;20561;-68
2022/07/02 05:04:28;;;;;;;0.10;0.10;;;19.90;99.90;22.70;102130.00;;;;5023339;28;20261;-68
2022/07/02 05:07:17;;;;;;;0.10;0.10;;;20.80;99.90;23.50;102132.00;;;;5032445;28;20197;-68
2022/07/02 05:10:12;;;;;;;0.10;0.10;;;21.90;99.90;22.90;102138.00;;;;5049237;28;20182;-68
2022/07/02 05:12:55;;;;;;;0.20;0.20;;;22.20;99.90;25.10;102140.00;;;;5048489;28;20219;-68
2022/07/02 05:15:39;;;;;;;0.10;0.10;;;23.00;99.90;24.90;102137.00;;;;5049069;28;20281;-68
2022/07/02 05:18:24;;;;;;;0.63;0.63;;;23.30;99.90;23.20;102116.00;;;;5048836;28;20701;-68
2022/07/02 05:21:10;;;;;;;0.10;0.10;;;22.40;99.90;23.70;102117.00;;;;5049068;28;20206;-68
2022/07/02 05:23:59;;;;;;;0.10;0.10;;;22.90;99.90;24.20;102141.00;;;;5048541;28;20273;-68
2022/07/02 05:26:48;;;;;;;0.10;0.10;;;22.60;99.90;24.50;102146.00;;;;5030540;28;20270;-68
2022/07/02 05:29:42;;;;;;;0.10;0.10;;;23.10;99.90;24.20;102143.00;;;;5046284;28;20291;-68
2022/07/02 05:32:48;;;;;;;0.10;0.10;;;23.20;99.90;26.50;102151.00;;;;5029728;28;20207;-68
2022/07/02 05:35:32;;;;;;;0.10;0.10;;;24.30;99.90;26.50;102132.00;;;;5029625;28;20175;-68
2022/07/02 05:38:15;;;;;;;0.10;0.10;;;24.90;99.90;26.60;102141.00;;;;5029753;28;20183;-68
2022/07/02 05:41:02;;;;;;;0.10;0.10;;;25.20;99.90;26.20;102158.00;;;;5029152;28;20182;-69
2022/07/02 05:43:53;;;;;;;0.10;0.10;;;24.90;99.90;27.60;102155.00;;;;5029565;28;20253;-69
2022/07/02 05:46:37;;;;;;;0.20;0.20;;;25.60;99.90;24.90;102155.00;;;;5014261;28;20176;-69
2022/07/02 05:49:23;;;;;;;0.10;0.10;;;25.00;99.90;25.50;102147.00;;;;5029214;28;20278;-68
2022/07/02 05:52:07;;;;;;;0.10;0.10;;;24.20;99.90;25.90;102141.00;;;;5029640;28;20229;-68
2022/07/02 05:54:53;;;;;;;0.05;0.05;;;24.60;99.90;25.20;102137.00;;;;5013749;28;20187;-68
2022/07/02 05:57:42;;;;;;;0.10;0.10;;;24.30;99.90;25.40;102160.00;;;;5029488;28;20183;-68
2022/07/02 06:00:28;;;;;;;0.10;0.10;;;24.40;99.90;27.00;102171.00;;;;5029208;28;20226;-68
2022/07/02 06:03:17;;;;;;;0.10;0.10;;;25.10;99.90;28.10;102155.00;;;;5012894;28;20256;-68
2022/07/02 06:09:29;;;;;;;0.00;0.00;;;27.00;99.90;27.80;102155.00;;;;5026603;28;20234;-68
2022/07/02 06:12:33;;;;;;;0.10;0.10;;;26.90;99.90;28.80;102135.00;;;;5029503;28;20199;-68
2022/07/02 06:15:20;;;;;;;0.10;0.10;;;26.80;99.90;26.40;102164.00;;;;5028472;28;20197;-68
2022/07/02 06:18:06;;;;;;;0.10;0.10;;;25.60;99.90;27.10;102152.00;;;;5029428;28;20666;-69
2022/07/02 06:20:54;;;;;;;0.00;0.00;;;26.10;99.90;28.40;102150.00;;;;5012736;28;20226;-69
2022/07/02 06:23:55;;;;;;;0.32;0.32;;;27.10;99.90;27.40;102150.00;;;;5028794;28;20210;-69
2022/07/02 06:26:58;;;;;;;0.10;0.10;;;26.90;99.90;28.80;102148.00;;;;5012388;28;20230;-69
2022/07/02 06:29:59;;;;;;;0.20;0.20;;;27.10;99.90;28.20;102152.00;;;;5028782;28;20195;-69
2022/07/02 06:32:46;;;;;;;0.10;0.10;;;27.80;99.90;29.40;102151.00;;;;5028483;28;20681;-66
2022/07/02 06:35:33;;;;;;;0.57;0.57;;;27.80;99.90;29.10;102145.00;;;;5028809;28;20175;-69
2022/07/02 06:38:16;;;;;;;0.00;0.00;;;27.80;99.60;28.10;102111.00;;;;5028936;28;20179;-69
2022/07/02 06:42:18;;;;;;;0.10;0.10;;;27.60;99.20;28.80;102151.00;;;;5028590;28;20577;-69
2022/07/02 06:44:34;;;;;;;0.00;0.00;;;27.60;98.80;30.90;102137.00;;;;5025349;28;20249;-70
2022/07/02 06:47:32;;;;;;;0.10;0.10;;;29.80;97.10;32.00;102121.00;;;;5028534;28;20290;-70
2022/07/02 06:50:18;;;;;;;0.10;0.10;;;30.80;95.60;31.50;102117.00;;;;5028564;28;20520;-69
2022/07/02 06:53:04;;;;;;;0.00;0.00;;;30.50;94.60;32.80;102128.00;;;;5028197;28;20203;-69
2022/07/02 06:56:15;;;;;;;0.10;0.10;;;31.00;94.10;32.00;102128.00;;;;5032904;28;20183;-69
2022/07/02 06:59:18;;;;;;;0.00;0.00;;;30.90;93.20;30.00;102126.00;;;;5017904;28;20191;-69
2022/07/02 07:02:20;;;;;;;0.10;0.10;;;30.40;91.70;25.70;102121.00;;;;5044884;28;20576;-69
2022/07/02 07:05:24;;;;;;;0.10;0.10;;;26.70;92.80;28.40;102157.00;;;;5032434;28;20627;-68
2022/07/02 07:07:55;;;;;;;0.00;0.00;;;27.00;94.00;32.20;102131.00;;;;5049060;28;20205;-69
2022/07/02 07:10:41;;;;;;;0.10;0.10;;;29.40;93.60;31.50;102137.00;;;;5032317;28;20179;-69
2022/07/02 07:13:32;;;;;;;0.13;0.13;;;31.00;90.80;31.20;102118.00;;;;5032394;28;20188;-69
2022/07/02 07:16:36;;;;;;;0.10;0.10;;;30.30;89.00;31.50;102128.00;;;;5032221;28;20719;-69
2022/07/02 07:19:22;;;;;;;0.32;0.32;;;31.00;90.20;28.70;102122.00;;;;5030991;28;20187;-68
2022/07/02 07:22:06;;;;;;;0.00;0.00;;;28.90;88.80;32.90;102135.00;;;;5031728;28;20226;-69
2022/07/02 07:25:16;;;;;;;0.10;0.10;;;30.60;90.00;29.30;102149.00;;;;5032186;28;20191;-69
2022/07/02 07:28:08;;;;;;;0.10;0.10;;;29.90;88.20;33.10;102135.00;;;;5031912;28;20275;-69
2022/07/02 07:30:54;;;;;;;0.10;0.10;;;31.00;88.90;30.70;102147.00;;;;5016935;28;20195;-68
2022/07/02 07:33:46;;;;;;;0.00;0.00;;;30.50;86.70;30.20;102138.00;;;;5032291;28;20218;-69
2022/07/02 07:36:30;;;;;;;0.10;0.10;;;29.60;88.00;32.60;102149.00;;;;5031478;28;20542;-69
2022/07/02 07:39:20;;;;;;;0.20;0.20;;;30.20;88.20;35.00;102130.00;;;;5031750;28;20199;-69
2022/07/02 07:42:23;;;;;;;0.05;0.05;;;32.50;85.60;31.50;102141.00;;;;5032231;28;20199;-69
2022/07/02 07:45:25;;;;;;;0.00;0.00;;;31.00;83.30;30.90;102136.00;;;;5031779;28;20167;-69
2022/07/02 07:48:16;;;;;;;0.00;0.00;;;32.00;81.60;30.30;102140.00;;;;5031621;28;20175;-69
2022/07/02 07:51:08;;;;;;;0.10;0.10;;;29.70;84.20;28.80;102145.00;;;;5031443;28;20179;-69
2022/07/02 07:54:32;;;;;;;0.10;0.10;;;29.30;83.00;31.40;102151.00;;;;5031377;28;20716;-69
2022/07/02 07:57:40;;;;;;;0.20;0.20;;;29.90;84.00;27.40;102159.00;;;;5027502;28;20250;-68
2022/07/02 08:00:46;;;;;;;0.10;0.10;;;28.50;84.40;27.60;102161.00;;;;5029902;28;20192;-69
2022/07/02 08:03:37;;;;;;;0.22;0.22;;;28.00;86.60;31.30;102153.00;;;;5047558;28;20663;-69
2022/07/02 08:06:45;;;;;;;0.10;0.10;;;28.90;86.10;27.60;102161.00;;;;5031382;28;20649;-67
2022/07/02 08:09:52;;;;;;;0.10;0.10;;;28.60;84.90;26.10;102169.00;;;;5048044;28;20293;-67
2022/07/02 08:12:42;;;;;;;0.10;0.10;;;26.40;88.60;29.60;102175.00;;;;5014844;28;20188;-67
2022/07/02 08:15:36;;;;;;;0.13;0.13;;;27.40;89.00;29.10;102157.00;;;;5031048;28;20203;-68
2022/07/02 08:18:27;;;;;;;0.13;0.13;;;28.70;86.20;29.10;102170.00;;;;5031189;28;20183;-67
2022/07/02 08:21:31;;;;;;;0.10;0.10;;;28.20;86.10;27.90;102160.00;;;;5014706;28;20194;-67
2022/07/02 08:24:39;;;;;;;0.10;0.10;;;27.40;87.70;26.40;102161.00;;;;5047841;28;20202;-67
2022/07/02 08:27:25;;;;;;;0.20;0.20;;;26.70;88.50;26.60;102178.00;;;;5030839;28;20282;-67
2022/07/02 08:30:12;;;;;;;0.10;0.10;;;26.30;90.10;25.90;102173.00;;;;5031017;28;20634;-67
2022/07/02 08:32:55;;;;;;;0.10;0.10;;;25.70;90.40;26.60;102175.00;;;;5030730;28;20199;-67
2022/07/02 08:35:43;;;;;;;0.43;0.30;;;25.90;91.10;25.60;102172.00;;;;5030752;28;20175;-67
2022/07/02 08:38:31;;;;;;;0.10;0.10;;;25.60;91.10;26.50;102171.00;;;;5031016;28;20182;-67
2022/07/02 08:41:34;;;;;;;0.10;0.10;;;25.90;91.00;26.30;102162.00;;;;5015534;28;20168;-67
2022/07/02 08:44:41;;;;;;;0.10;0.10;;;25.60;91.90;27.60;102159.00;;;;5030685;28;20214;-68
2022/07/02 08:47:42;;;;;;;0.10;0.10;;;26.50;91.50;27.40;102153.00;;;;5030841;28;20194;-68
2022/07/02 08:50:44;;;;;;;0.10;0.10;;;26.60;91.40;29.90;102102.00;;;;5027030;28;20190;-68
2022/07/02 08:53:49;;;;;;;0.10;0.10;;;27.80;91.40;29.10;102149.00;;;;5029954;28;20541;-68
2022/07/02 08:56:42;;;;;;;0.10;0.10;;;28.20;90.90;28.70;102137.00;;;;5030360;28;20604;-68
2022/07/02 08:59:33;;;;;;;0.10;0.10;;;27.90;91.10;29.30;102127.00;;;;5030685;28;20226;-68
2022/07/02 09:02:35;;;;;;;0.10;0.10;;;28.00;90.70;26.90;102143.00;;;;5030424;28;20199;-68
2022/07/02 09:05:23;;;;;;;1.35;1.35;;;27.20;91.10;27.00;102152.00;;;;5030130;28;20223;-68
2022/07/02 09:08:10;;;;;;;0.10;0.10;;;26.50;92.40;28.90;102121.00;;;;5029499;28;20186;-68
2022/07/02 09:11:16;;;;;;;0.10;0.10;;;27.60;91.80;26.50;102143.00;;;;5014972;28;20216;-68
2022/07/02 09:14:19;;;;;;;0.00;0.00;;;26.80;91.50;27.10;102133.00;;;;5025840;28;20179;-68
2022/07/02 09:17:24;;;;;;;0.10;0.10;;;26.40;92.00;28.00;102107.00;;;;5028926;28;20184;-68
2022/07/02 09:20:17;;;;;;;0.10;0.10;;;27.50;91.20;27.20;102102.00;;;;5029766;28;20238;-68
2022/07/02 09:23:08;;;;;;;0.30;0.30;;;27.40;91.60;28.50;102108.00;;;;5029770;28;20723;-68
2022/07/02 09:26:21;;;;;;;0.20;0.20;;;27.40;91.70;27.70;102120.00;;;;5030373;28;20683;-68
2022/07/02 09:29:40;;;;;;;0.10;0.10;;;27.60;90.80;27.20;102103.00;;;;5013297;28;20174;-68
2022/07/02 09:32:39;;;;;;;0.10;0.10;;;27.00;90.90;28.50;102102.00;;;;5027325;28;20202;-68
2022/07/02 09:35:27;;;;;;;0.10;0.10;;;27.30;91.60;28.10;102074.00;;;;5029654;28;20329;-68
2022/07/02 09:38:13;;;;;;;0.17;0.17;;;27.70;91.10;28.70;102061.00;;;;5029969;28;20188;-67
2022/07/02 09:41:01;;;;;;;0.10;0.10;;;27.80;91.30;30.10;102055.00;;;;5029690;28;20191;-68
2022/07/02 09:44:00;;;;;;;0.20;0.20;;;28.90;90.30;28.60;102070.00;;;;5029619;28;20204;-68
2022/07/02 09:47:01;;;;;;;0.10;0.10;;;28.10;90.70;26.00;102096.00;;;;5027242;28;20310;-68
2022/07/02 09:50:11;;;;;;;0.17;0.17;;;26.30;91.50;26.90;102107.00;;;;5012965;28;20183;-68
2022/07/02 09:52:58;;;;;;;3.47;0.45;;;25.80;92.20;27.50;102094.00;;;;5046291;28;20191;-67
2022/07/02 09:59:17;;;;;;;0.10;0.10;;;27.40;90.90;29.20;102047.00;;;;5014259;28;20198;-67
2022/07/02 10:02:27;;;;;;;0.10;0.10;;;28.30;90.20;27.70;102071.00;;;;5014033;28;20206;-67
2022/07/02 10:05:13;;;;;;;0.38;0.38;;;27.90;89.40;28.60;102076.00;;;;5029174;28;20614;-68
2022/07/02 10:08:00;;;;;;;0.10;0.10;;;27.60;90.50;30.30;102063.00;;;;5029334;28;20254;-68
2022/07/02 10:10:33;;;;;;;0.43;0.40;;;28.50;90.30;32.00;102033.00;;;;5028908;28;20180;-68
2022/07/02 10:13:21;;;;;;;0.10;0.10;;;30.40;87.10;30.00;102059.00;;;;5012908;28;20200;-68
2022/07/02 10:16:31;;;;;;;0.10;0.10;;;29.40;88.90;30.00;102038.00;;;;5028285;28;20202;-68
2022/07/02 10:20:04;;;;;;;0.28;0.28;;;29.50;86.60;28.50;102064.00;;;;5013932;28;20187;-67
2022/07/02 10:33:34;;;;;;;0.10;0.10;;;24.40;91.90;25.30;102066.00;;;;5110535;27;1407746;-68
2022/07/02 10:36:35;;;;;;;0.20;0.20;;;24.70;91.30;26.10;102071.00;;;;5131816;28;20366;-68
2022/07/02 10:39:24;;;;;;;0.30;0.30;;;24.70;91.90;25.90;102058.00;;;;5130975;28;20228;-68
2022/07/02 10:42:37;;;;;;;0.10;0.10;;;25.40;91.30;26.90;102045.00;;;;5115211;28;20185;-68
2022/07/02 10:45:36;;;;;;;0.10;0.10;;;26.60;91.10;26.30;102037.00;;;;5115048;28;20175;-68
2022/07/02 10:48:46;;;;;;;0.13;0.13;;;25.80;90.10;27.20;102055.00;;;;5117610;28;20195;-68
2022/07/02 10:52:17;;;;;;;0.10;0.10;;;26.00;90.50;28.90;102033.00;;;;5100153;28;20248;-69
2022/07/02 10:55:03;;;;;;;0.10;0.10;;;27.50;89.10;28.30;102020.00;;;;5130250;28;20216;-68
2022/07/02 10:58:08;;;;;;;0.10;0.10;;;27.40;87.30;26.90;102033.00;;;;5113191;28;20759;-68
2022/07/02 11:01:13;;;;;;;0.10;0.10;;;26.80;88.30;28.30;102027.00;;;;5130206;28;20309;-69
2022/07/02 11:04:08;;;;;;;0.10;0.10;;;27.20;88.00;28.30;102032.00;;;;5130368;28;20176;-69
2022/07/02 11:07:11;;;;;;;0.80;0.73;;;27.30;87.60;26.90;102025.00;;;;5121481;27;20191;-68
2022/07/02 11:09:57;;;;;;;0.20;0.20;;;26.60;86.20;26.80;102036.00;;;;5129777;28;20630;-68
2022/07/02 11:12:57;;;;;;;0.40;0.40;;;26.40;87.30;26.20;102035.00;;;;5112970;28;20246;-68
2022/07/02 11:15:49;;;;;;;0.43;0.43;;;25.90;88.50;28.30;102031.00;;;;5112536;28;20172;-68
2022/07/02 11:18:46;;;;;;;0.30;0.30;;;26.70;89.10;28.80;102021.00;;;;5130289;28;20618;-68
2022/07/02 11:21:43;;;;;;;0.10;0.10;;;28.10;86.00;28.70;102007.00;;;;5098692;28;20217;-68
2022/07/02 11:24:52;;;;;;;0.10;0.10;;;27.50;86.50;27.60;102023.00;;;;5112725;28;20180;-68
2022/07/02 11:27:37;;;;;;;0.20;0.20;;;27.50;86.40;25.90;101991.00;;;;5114293;28;20678;-68
2022/07/02 11:30:27;;;;;;;0.10;0.10;;;26.20;87.30;28.40;102018.00;;;;5112181;28;20191;-68
2022/07/02 11:33:13;;;;;;;0.10;0.10;;;27.10;88.20;29.40;101997.00;;;;5111854;28;20219;-68
2022/07/02 11:35:59;;;;;;;0.10;0.10;;;28.30;84.90;29.30;101997.00;;;;5129812;28;20598;-68
2022/07/02 11:38:45;;;;;;;0.10;0.10;;;28.90;83.40;29.00;101992.00;;;;5130646;27;20179;-68
2022/07/02 11:41:23;;;;;;;0.10;0.10;;;28.70;83.10;29.70;101996.00;;;;5112279;28;20266;-68
2022/07/02 11:44:24;;;;;;;0.10;0.10;;;28.60;83.90;25.00;101981.00;;;;5120978;27;20164;-68
2022/07/02 11:47:00;;;;;;;0.15;0.15;;;25.70;86.40;26.90;102004.00;;;;5115624;28;20172;-68
2022/07/02 11:49:47;;;;;;;0.10;0.10;;;25.80;88.00;25.70;102009.00;;;;5115620;28;20607;-68
2022/07/02 11:52:40;;;;;;;0.35;0.30;;;25.70;86.50;26.40;101999.00;;;;5098155;28;20216;-68
2022/07/02 11:55:24;;;;;;;0.10;0.10;;;25.90;87.10;26.50;102009.00;;;;5098308;28;20528;-69
2022/07/02 11:58:10;;;;;;;0.10;0.10;;;25.80;87.60;26.60;102001.00;;;;5097981;28;20263;-68
2022/07/02 12:00:53;;;;;;;0.10;0.10;;;25.70;88.70;27.80;102006.00;;;;5115178;28;20172;-68
2022/07/02 12:03:45;;;;;;;0.10;0.10;;;26.40;89.00;29.00;101986.00;;;;5097427;28;20286;-68
2022/07/02 12:06:43;;;;;;;0.20;0.20;;;27.50;87.70;28.00;101991.00;;;;5114826;28;20192;-67
2022/07/02 12:09:30;;;;;;;0.10;0.10;;;27.70;84.60;26.10;101998.00;;;;5115536;28;20178;-69
2022/07/02 12:12:19;;;;;;;0.10;0.10;;;26.20;86.00;27.00;101996.00;;;;5097795;28;20204;-68
2022/07/02 12:15:23;;;;;;;0.10;0.10;;;25.90;88.30;26.90;101988.00;;;;5083807;28;20184;-69
2022/07/02 12:18:18;;;;;;;0.68;0.68;;;26.20;87.30;26.40;101994.00;;;;5115006;28;20176;-69
2022/07/02 12:21:12;;;;;;;0.10;0.10;;;25.90;87.60;25.60;101996.00;;;;5098049;28;20191;-69
2022/07/02 12:24:03;;;;;;;0.10;0.10;;;25.20;89.10;27.40;101984.00;;;;5115061;28;20164;-68
2022/07/02 12:26:48;;;;;;;0.10;0.10;;;25.80;89.60;26.50;101983.00;;;;5103161;28;20195;-68
2022/07/02 12:30:13;;;;;;;0.30;0.30;;;25.50;90.10;25.30;101948.00;;;;5114945;28;20671;-68
2022/07/02 12:33:28;;;;;;;0.65;0.65;;;25.40;88.50;26.00;101982.00;;;;5114468;28;20204;-67
2022/07/02 12:36:47;;;;;;;0.13;0.13;;;25.00;90.50;26.80;101984.00;;;;5097728;28;20333;-68
2022/07/02 12:39:58;;;;;;;0.10;0.10;;;25.70;90.30;26.20;101975.00;;;;5114176;28;20864;-68
2022/07/02 12:42:53;;;;;;;0.40;0.40;;;26.00;89.80;27.20;101951.00;;;;5115353;28;20184;-68
2022/07/02 12:45:29;;;;;;;0.40;0.40;;;26.00;89.80;26.80;101964.00;;;;5114683;28;20195;-68
2022/07/02 12:48:06;;;;;;;0.30;0.30;;;25.90;89.40;25.20;101955.00;;;;5097529;28;20525;-68
2022/07/02 12:51:08;;;;;;;0.10;0.10;;;25.00;90.10;25.50;101959.00;;;;5115777;28;20183;-68
2022/07/02 12:53:57;;;;;;;0.20;0.20;;;25.00;90.30;26.10;101980.00;;;;5114021;28;20179;-68
2022/07/02 12:57:10;;;;;;;0.10;0.10;;;25.00;90.60;27.50;101969.00;;;;5096548;28;20184;-68
2022/07/02 12:59:56;;;;;;;0.10;0.10;;;25.60;91.00;28.00;101948.00;;;;5113992;28;20199;-68
2022/07/02 13:02:57;;;;;;;0.90;0.40;;;26.50;90.00;27.40;101950.00;;;;5114501;28;20172;-68
2022/07/02 13:05:52;;;;;;;0.10;0.10;;;26.90;88.50;28.10;101930.00;;;;5097431;28;20253;-68
2022/07/02 13:08:38;;;;;;;0.10;0.10;;;26.80;89.40;27.90;101935.00;;;;5097048;28;20219;-69
2022/07/02 13:11:25;;;;;;;0.10;0.10;;;26.80;89.20;26.00;101908.00;;;;5113753;28;20238;-68
2022/07/02 13:17:54;;;;;;;0.10;0.10;;;25.70;90.30;27.20;101946.00;;;;5099501;28;20255;-68
2022/07/02 13:20:40;;;;;;;0.10;0.10;;;26.20;89.80;27.70;101944.00;;;;5113983;28;20180;-68
2022/07/02 13:23:26;;;;;;;0.10;0.10;;;26.40;88.00;28.10;101934.00;;;;5113710;28;20172;-69
2022/07/02 13:26:17;;;;;;;0.10;0.10;;;26.90;87.80;27.30;101941.00;;;;5113254;28;20634;-68
2022/07/02 13:29:18;;;;;;;0.15;0.15;;;26.90;87.20;26.80;101938.00;;;;5113814;28;20181;-68